Time;durP1;ratioP1;P1;durP2;ratioP2;P2;SDS_P1;SDS_P2;PMS_P1;PMS_P2;Temp;Humidity;BMP_temperature;BMP_pressure;BME280_temperature;BME280_humidity;BME280_pressure;Samples;Min_cycle;Max_cycle;Signal;HPM_P1;HPM_P2
2023/07/17 00:00:47;;;;;;;9.93;3.47;;;16.60;99.90;;;15.83;100.00;97894.25;4934623;29;20119;-78
2023/07/17 00:03:14;;;;;;;5.97;2.90;;;16.60;99.90;;;16.00;100.00;97897.63;4942290;29;20044;-78
2023/07/17 00:05:41;;;;;;;8.88;3.65;;;16.60;99.90;;;15.90;100.00;97897.34;4935391;29;20058;-77
2023/07/17 00:08:10;;;;;;;7.85;3.60;;;16.50;99.90;;;16.00;100.00;97887.16;4939332;29;20043;-78
2023/07/17 00:10:40;;;;;;;7.22;3.15;;;16.50;99.90;;;15.99;100.00;97890.72;4943430;28;20098;-78
2023/07/17 00:13:07;;;;;;;9.35;3.33;;;16.50;99.90;;;15.96;100.00;97896.13;4942505;28;20098;-78
2023/07/17 00:15:35;;;;;;;8.07;3.10;;;16.50;99.90;;;15.92;100.00;97899.84;4918454;29;20052;-79
2023/07/17 00:18:02;;;;;;;9.52;3.47;;;16.40;99.90;;;15.87;100.00;97892.28;4941555;29;20749;-76
2023/07/17 00:20:29;;;;;;;10.05;3.63;;;16.50;99.90;;;15.93;100.00;97896.31;4906683;29;20039;-78
2023/07/17 00:22:56;;;;;;;9.25;3.38;;;16.50;99.90;;;15.82;100.00;97900.41;4941840;29;20047;-77
2023/07/17 00:25:24;;;;;;;8.85;3.78;;;16.40;99.90;;;15.83;100.00;97898.66;4941865;29;20052;-77
2023/07/17 00:27:53;;;;;;;10.25;2.92;;;16.40;99.90;;;15.86;100.00;97899.28;4944275;29;20508;-77
2023/07/17 00:30:20;;;;;;;7.28;2.90;;;16.40;99.90;;;15.93;100.00;97909.41;4939474;29;20055;-77
2023/07/17 00:32:47;;;;;;;9.48;3.33;;;16.30;99.90;;;15.77;100.00;97899.84;4936107;29;20143;-75
2023/07/17 00:35:15;;;;;;;14.07;3.08;;;16.40;99.90;;;15.79;100.00;97910.22;4936284;28;20118;-77
2023/07/17 00:37:43;;;;;;;10.35;3.15;;;16.30;99.90;;;15.72;100.00;97906.28;4930843;28;20130;-76
2023/07/17 00:40:11;;;;;;;11.88;3.58;;;16.30;99.90;;;15.72;100.00;97914.13;4932431;29;20059;-77
2023/07/17 00:42:38;;;;;;;10.65;3.67;;;16.20;99.90;;;15.56;100.00;97909.75;4949698;28;20047;-77
2023/07/17 00:45:08;;;;;;;9.55;3.55;;;16.20;99.90;;;15.58;100.00;97912.28;4942099;28;20067;-76
2023/07/17 00:47:36;;;;;;;9.95;3.50;;;16.10;99.90;;;15.55;100.00;97913.28;4938586;29;20126;-76
2023/07/17 00:50:04;;;;;;;7.22;3.53;;;16.10;99.90;;;15.51;100.00;97918.78;4933174;28;20094;-76
2023/07/17 00:52:32;;;;;;;9.18;3.70;;;16.10;99.90;;;15.49;100.00;97921.50;4931555;29;20051;-77
2023/07/17 00:54:59;;;;;;;11.23;3.92;;;16.00;99.90;;;15.45;100.00;97923.44;4935710;29;20055;-76
2023/07/17 00:57:27;;;;;;;9.05;3.78;;;16.00;99.90;;;15.35;100.00;97922.28;4942348;28;20063;-77
2023/07/17 00:59:54;;;;;;;12.05;3.50;;;16.00;99.90;;;15.36;100.00;97930.97;4929863;29;20051;-77
2023/07/17 01:02:22;;;;;;;11.95;3.97;;;16.00;99.90;;;15.37;100.00;97927.41;4930957;29;20568;-75
2023/07/17 01:04:49;;;;;;;9.77;3.40;;;15.90;99.90;;;15.20;100.00;97923.97;4929022;29;20508;-77
2023/07/17 01:07:16;;;;;;;7.78;3.40;;;15.90;99.90;;;15.15;100.00;97926.00;4915923;29;22012;-77
2023/07/17 01:09:43;;;;;;;10.02;3.33;;;15.90;99.90;;;15.22;100.00;97931.75;4940488;28;20457;-77
2023/07/17 01:12:11;;;;;;;9.38;3.08;;;15.90;99.90;;;15.22;100.00;97935.19;4927453;29;20062;-76
2023/07/17 01:14:39;;;;;;;7.72;3.10;;;16.00;99.90;;;15.14;100.00;97937.38;4929482;29;20075;-77
2023/07/17 01:17:07;;;;;;;9.20;2.70;;;15.90;99.90;;;15.17;100.00;97936.38;4924724;29;20047;-78
2023/07/17 01:19:34;;;;;;;9.25;3.33;;;15.80;99.90;;;15.11;100.00;97944.56;4929901;29;20174;-77
2023/07/17 01:22:11;;;;;;;7.78;3.58;;;15.80;99.90;;;15.06;100.00;97947.44;4929572;29;20059;-75
2023/07/17 01:24:37;;;;;;;8.27;3.70;;;15.70;99.90;;;15.10;100.00;97953.31;4926579;29;20048;-77
2023/07/17 01:27:05;;;;;;;8.48;3.80;;;15.70;99.90;;;15.04;100.00;97944.88;4929897;29;20052;-77
2023/07/17 01:29:36;;;;;;;11.10;3.65;;;15.70;99.90;;;15.12;100.00;97946.22;4924990;28;20166;-77
2023/07/17 01:32:03;;;;;;;11.55;4.05;;;15.60;99.90;;;15.08;100.00;97952.59;4932778;29;20520;-77
2023/07/17 01:34:31;;;;;;;7.45;2.78;;;15.60;99.90;;;15.02;100.00;97948.53;4915009;29;20152;-76
2023/07/17 01:36:58;;;;;;;10.02;3.10;;;15.60;99.90;;;15.10;100.00;97956.81;4929415;29;22345;-78
2023/07/17 01:39:26;;;;;;;8.00;2.95;;;15.60;99.90;;;15.11;100.00;97960.25;4914153;29;20108;-77
2023/07/17 01:41:53;;;;;;;9.85;4.13;;;15.60;99.90;;;15.18;100.00;97965.03;4928965;29;20584;-76
2023/07/17 01:44:21;;;;;;;8.95;3.60;;;15.70;99.90;;;15.20;100.00;97963.19;4939683;29;20123;-78
2023/07/17 01:46:48;;;;;;;11.52;3.55;;;15.70;99.90;;;15.21;100.00;97962.28;4941290;29;20055;-77
2023/07/17 01:49:16;;;;;;;10.10;3.50;;;15.70;99.90;;;15.25;100.00;97960.31;4937072;29;20120;-77
2023/07/17 01:51:43;;;;;;;13.18;3.42;;;15.80;99.90;;;15.13;100.00;97961.84;4935713;28;20114;-77
2023/07/17 01:54:10;;;;;;;7.85;2.85;;;15.80;99.90;;;15.30;100.00;97966.13;4938437;29;20050;-76
2023/07/17 01:56:38;;;;;;;8.75;2.92;;;15.70;99.90;;;15.31;100.00;97960.00;4942143;29;20066;-77
2023/07/17 01:59:06;;;;;;;9.45;3.42;;;15.70;99.90;;;15.12;100.00;97965.41;4942238;29;20079;-78
2023/07/17 02:01:33;;;;;;;12.18;3.63;;;15.60;99.90;;;14.98;100.00;97971.34;4936490;29;20043;-77
2023/07/17 02:04:01;;;;;;;13.13;3.55;;;15.60;99.90;;;15.03;100.00;97974.59;4936347;29;20052;-76
2023/07/17 02:06:28;;;;;;;13.25;3.75;;;15.50;99.90;;;15.02;100.00;97978.09;4935202;28;20056;-77
2023/07/17 02:08:55;;;;;;;7.25;3.53;;;15.50;99.90;;;15.02;100.00;97972.88;4936342;29;20166;-77
2023/07/17 02:11:27;;;;;;;8.77;3.67;;;15.60;99.90;;;15.10;100.00;97975.09;4945962;28;20051;-75
2023/07/17 02:13:55;;;;;;;12.30;3.53;;;15.70;99.90;;;15.11;100.00;97970.72;4950893;28;20075;-77
2023/07/17 02:16:22;;;;;;;13.93;3.85;;;15.70;99.90;;;15.17;100.00;97970.38;4947284;29;20051;-77
2023/07/17 02:18:52;;;;;;;10.50;3.38;;;15.70;99.90;;;15.23;100.00;97970.84;4926351;29;20048;-76
2023/07/17 02:21:19;;;;;;;11.50;3.40;;;15.80;99.90;;;15.23;100.00;97973.47;4940421;29;20102;-77
2023/07/17 02:23:46;;;;;;;8.65;2.70;;;15.70;99.90;;;15.08;100.00;97970.88;4934116;28;20121;-77
2023/07/17 02:26:14;;;;;;;6.63;2.88;;;15.70;99.90;;;15.10;100.00;97971.63;4935416;29;20043;-77
2023/07/17 02:28:41;;;;;;;8.40;3.22;;;15.60;99.90;;;14.95;100.00;97978.53;4933484;29;20114;-76
2023/07/17 02:31:08;;;;;;;10.10;3.92;;;15.60;99.90;;;14.85;100.00;97983.41;4935171;29;20082;-76
2023/07/17 02:33:34;;;;;;;6.00;2.85;;;15.50;99.90;;;14.88;100.00;97991.09;4934162;29;20875;-76
2023/07/17 02:36:05;;;;;;;9.55;3.50;;;15.50;99.90;;;14.78;100.00;97988.13;4938852;29;20404;-76
2023/07/17 02:38:34;;;;;;;9.82;3.67;;;15.40;99.90;;;14.62;100.00;97990.72;4934009;29;20048;-77
2023/07/17 02:41:01;;;;;;;7.63;3.05;;;15.30;99.90;;;14.65;100.00;98000.16;4934463;29;20502;-76
2023/07/17 02:43:29;;;;;;;9.95;2.83;;;15.30;99.90;;;14.50;100.00;98004.34;4932871;29;20051;-77
2023/07/17 02:45:56;;;;;;;9.40;3.78;;;15.20;99.90;;;14.38;100.00;98011.06;4938429;29;20142;-76
2023/07/17 02:48:23;;;;;;;7.43;3.40;;;15.20;99.90;;;14.38;100.00;98018.06;4936878;29;20060;-77
2023/07/17 02:50:51;;;;;;;10.68;2.95;;;15.20;99.90;;;14.31;100.00;98021.91;4935618;29;20405;-77
2023/07/17 02:53:18;;;;;;;7.90;3.22;;;15.10;99.90;;;14.27;100.00;98034.25;4934009;29;20046;-77
2023/07/17 02:55:45;;;;;;;12.02;3.05;;;15.10;99.90;;;14.30;100.00;98028.03;4929596;29;20051;-77
2023/07/17 02:58:16;;;;;;;11.60;3.20;;;15.00;99.90;;;14.22;100.00;98031.88;4931331;29;20114;-77
2023/07/17 03:00:46;;;;;;;7.72;3.28;;;14.90;99.90;;;14.26;100.00;98035.19;4952306;28;20079;-77
2023/07/17 03:03:13;;;;;;;9.98;4.05;;;15.00;99.90;;;14.39;100.00;98045.84;4956936;28;20087;-76
2023/07/17 03:05:41;;;;;;;10.52;3.08;;;15.00;99.90;;;14.39;100.00;98049.31;4934554;29;20103;-77
2023/07/17 03:08:08;;;;;;;8.02;2.88;;;15.10;99.90;;;14.46;100.00;98049.00;4937776;29;20051;-78
2023/07/17 03:10:35;;;;;;;10.60;3.42;;;15.10;99.90;;;14.33;100.00;98051.41;4925056;29;20060;-75
2023/07/17 03:13:02;;;;;;;8.95;3.47;;;15.00;99.90;;;14.26;100.00;98063.91;4943347;28;20464;-77
2023/07/17 03:15:31;;;;;;;9.30;3.33;;;15.00;99.90;;;14.10;100.00;98065.59;4949579;29;20207;-78
2023/07/17 03:17:58;;;;;;;9.75;3.78;;;14.80;99.90;;;13.99;100.00;98071.34;4942412;29;20110;-77
2023/07/17 03:20:27;;;;;;;10.50;3.38;;;14.70;99.90;;;14.01;100.00;98064.28;4942181;29;20054;-77
2023/07/17 03:22:55;;;;;;;13.27;3.30;;;14.70;99.90;;;13.94;100.00;98071.56;4944922;29;20059;-76
2023/07/17 03:25:24;;;;;;;8.98;3.58;;;14.70;99.90;;;13.79;100.00;98069.66;4946844;29;20082;-76
2023/07/17 03:27:51;;;;;;;9.50;3.63;;;14.70;99.90;;;13.91;100.00;98082.16;4949446;29;20066;-77
2023/07/17 03:30:18;;;;;;;11.15;3.67;;;14.60;99.90;;;13.92;100.00;98085.59;4941928;29;20154;-77
2023/07/17 03:32:45;;;;;;;11.65;3.60;;;14.50;99.90;;;13.84;100.00;98085.94;4945424;29;20460;-77
2023/07/17 03:35:12;;;;;;;9.43;3.40;;;14.50;99.90;;;13.85;100.00;98082.44;4939758;29;20135;-77
2023/07/17 03:37:40;;;;;;;12.13;3.63;;;14.50;99.90;;;13.85;100.00;98090.25;4944474;29;20114;-76
2023/07/17 03:40:10;;;;;;;11.18;3.25;;;14.60;99.90;;;13.89;100.00;98094.41;4938239;29;20045;-75
2023/07/17 03:42:39;;;;;;;16.40;3.20;;;14.60;99.90;;;13.84;100.00;98101.59;4935781;29;20095;-77
2023/07/17 03:45:07;;;;;;;9.45;3.20;;;14.60;99.90;;;13.91;100.00;98103.03;4942792;29;20071;-77
2023/07/17 03:47:34;;;;;;;9.38;3.40;;;14.60;99.90;;;13.79;100.00;98101.81;4954661;28;20138;-76
2023/07/17 03:50:01;;;;;;;11.57;4.45;;;14.40;99.90;;;13.83;100.00;98099.94;4958423;28;20043;-77
2023/07/17 03:52:28;;;;;;;11.20;3.75;;;14.40;99.90;;;13.87;100.00;98098.03;4948025;29;20087;-77
2023/07/17 03:54:55;;;;;;;9.25;3.58;;;14.40;99.90;;;13.83;100.00;98109.53;4943449;29;20076;-77
2023/07/17 03:57:22;;;;;;;9.45;3.38;;;14.40;99.90;;;13.88;100.00;98108.38;4944290;29;20052;-77
2023/07/17 03:59:54;;;;;;;10.77;3.05;;;14.40;99.90;;;14.00;100.00;98109.53;4944628;29;20978;-77
2023/07/17 04:02:22;;;;;;;6.35;3.03;;;14.40;99.90;;;13.99;100.00;98106.09;4955004;28;20115;-77
2023/07/17 04:04:50;;;;;;;14.70;3.60;;;14.50;99.90;;;14.00;100.00;98109.53;4936507;29;20162;-76
2023/07/17 04:07:17;;;;;;;12.02;3.55;;;14.50;99.90;;;14.10;100.00;98105.59;4949061;28;20060;-77
2023/07/17 04:09:45;;;;;;;11.35;3.40;;;14.50;99.90;;;14.18;100.00;98113.88;4937242;29;20049;-76
2023/07/17 04:12:12;;;;;;;8.73;3.30;;;14.60;99.90;;;14.10;100.00;98113.41;4937490;29;20055;-76
2023/07/17 04:14:39;;;;;;;8.38;2.80;;;14.60;99.90;;;14.17;100.00;98114.81;4933344;28;20051;-76
2023/07/17 04:17:06;;;;;;;8.23;3.70;;;14.70;99.90;;;14.16;100.00;98114.88;4936656;29;20067;-77
2023/07/17 04:19:33;;;;;;;9.82;3.95;;;14.60;99.90;;;14.23;100.00;98124.09;4939596;29;20043;-77
2023/07/17 04:22:00;;;;;;;11.30;3.95;;;14.70;99.90;;;14.23;100.00;98126.72;4933215;29;20083;-77
2023/07/17 04:24:27;;;;;;;12.27;4.47;;;14.70;99.90;;;14.23;100.00;98122.34;4933632;28;20091;-77
2023/07/17 04:26:55;;;;;;;8.20;3.22;;;14.70;99.90;;;14.36;100.00;98125.19;4921604;29;20055;-76
2023/07/17 04:29:22;;;;;;;12.77;3.83;;;14.80;99.90;;;14.45;100.00;98123.91;4951360;28;20095;-76
2023/07/17 04:31:50;;;;;;;11.68;3.63;;;14.80;99.90;;;14.57;100.00;98132.91;4950968;28;20051;-76
2023/07/17 04:34:18;;;;;;;6.20;3.08;;;14.90;99.90;;;14.51;100.00;98120.16;4943445;29;20039;-77
2023/07/17 04:36:46;;;;;;;10.80;3.78;;;15.00;99.90;;;14.62;100.00;98120.50;4950319;28;20052;-77
2023/07/17 04:39:13;;;;;;;9.63;3.03;;;15.00;99.90;;;14.68;100.00;98114.94;4935965;29;20047;-78
2023/07/17 04:41:40;;;;;;;11.32;3.13;;;15.00;99.90;;;14.81;100.00;98110.78;4935281;29;20088;-77
2023/07/17 04:44:08;;;;;;;6.75;3.08;;;15.00;99.90;;;14.78;100.00;98110.94;4936305;29;20048;-77
2023/07/17 04:46:38;;;;;;;8.18;2.83;;;15.10;99.90;;;14.91;100.00;98108.53;4935958;29;20055;-77
2023/07/17 04:49:05;;;;;;;11.10;3.78;;;15.10;99.90;;;14.84;100.00;98105.38;4937337;29;20085;-76
2023/07/17 04:51:33;;;;;;;6.93;3.33;;;15.20;99.90;;;15.06;100.00;98115.59;4938594;29;20432;-76
2023/07/17 04:54:00;;;;;;;8.27;3.08;;;15.30;99.90;;;15.15;100.00;98101.19;4936724;29;20327;-76
2023/07/17 04:56:27;;;;;;;8.25;2.70;;;15.40;99.90;;;15.13;100.00;98102.19;4935606;29;20058;-78
2023/07/17 04:58:54;;;;;;;9.45;3.58;;;15.50;99.90;;;15.19;100.00;98102.72;4953253;28;20127;-77
2023/07/17 05:01:21;;;;;;;9.05;3.85;;;15.60;99.90;;;15.27;100.00;98102.31;4936174;29;20090;-77
2023/07/17 05:03:48;;;;;;;8.15;3.70;;;15.60;99.90;;;15.40;100.00;98103.34;4937506;29;20509;-77
2023/07/17 05:06:17;;;;;;;12.02;4.32;;;15.70;99.90;;;15.42;100.00;98098.03;4944401;29;20127;-76
2023/07/17 05:08:44;;;;;;;10.70;3.97;;;15.80;99.90;;;15.53;100.00;98108.78;4943681;29;20059;-77
2023/07/17 05:11:11;;;;;;;10.10;2.90;;;15.90;99.90;;;15.80;100.00;98103.81;4942778;29;20090;-78
2023/07/17 05:13:38;;;;;;;9.65;3.63;;;16.00;99.90;;;15.64;100.00;98101.16;4932940;29;20606;-77
2023/07/17 05:16:05;;;;;;;8.35;3.53;;;16.00;99.90;;;15.73;100.00;98106.84;4951962;29;20052;-77
2023/07/17 05:18:33;;;;;;;7.57;3.00;;;16.10;99.90;;;15.92;100.00;98112.78;4942836;29;20051;-77
2023/07/17 05:21:00;;;;;;;8.18;3.88;;;16.00;99.90;;;15.79;100.00;98107.38;4947845;29;20052;-78
2023/07/17 05:23:27;;;;;;;9.27;3.78;;;16.00;99.90;;;15.77;100.00;98101.38;4945737;29;20139;-78
2023/07/17 05:25:57;;;;;;;7.97;3.08;;;16.10;99.90;;;16.03;100.00;98099.94;4950865;29;20055;-77
2023/07/17 05:28:25;;;;;;;9.88;3.70;;;16.10;99.90;;;16.17;100.00;98101.75;4964752;28;20058;-77
2023/07/17 05:30:54;;;;;;;9.55;3.90;;;16.20;99.90;;;16.11;100.00;98091.63;4949027;29;20061;-77
2023/07/17 05:33:23;;;;;;;8.23;3.65;;;16.30;99.90;;;16.33;100.00;98096.50;4964083;28;20098;-77
2023/07/17 05:35:51;;;;;;;13.98;3.40;;;16.30;99.90;;;16.25;100.00;98086.44;4942748;29;20522;-77
2023/07/17 05:38:18;;;;;;;8.65;3.78;;;16.40;99.90;;;16.25;100.00;98090.84;4940441;28;20055;-78
2023/07/17 05:41:03;;;;;;;8.00;3.50;;;16.50;99.90;;;16.12;100.00;98089.84;4948899;28;20049;-76
2023/07/17 05:43:31;;;;;;;5.95;3.35;;;16.60;99.90;;;16.63;100.00;98082.53;4961772;28;20059;-77
2023/07/17 05:46:00;;;;;;;9.48;3.35;;;16.70;99.90;;;16.70;100.00;98083.84;4945777;29;20054;-77
2023/07/17 05:48:27;;;;;;;11.77;3.65;;;16.60;99.90;;;16.64;100.00;98077.19;4950819;29;20055;-78
2023/07/17 05:50:54;;;;;;;11.02;3.58;;;16.50;99.90;;;16.37;100.00;98070.94;4947844;29;20495;-77
2023/07/17 05:53:22;;;;;;;11.43;4.10;;;16.60;99.90;;;16.50;100.00;98078.00;4945499;29;20074;-77
2023/07/17 05:55:50;;;;;;;12.30;3.33;;;16.70;99.90;;;16.59;100.00;98078.41;4938736;28;20047;-77
2023/07/17 05:58:17;;;;;;;9.63;3.00;;;16.80;99.90;;;16.56;100.00;98057.59;4942147;28;20086;-77
2023/07/17 06:00:45;;;;;;;7.43;3.50;;;16.80;99.90;;;16.72;100.00;98069.72;4942127;28;20495;-77
2023/07/17 06:03:13;;;;;;;10.65;3.60;;;16.90;99.90;;;16.76;100.00;98064.28;4957546;28;20102;-76
2023/07/17 06:05:40;;;;;;;9.75;3.60;;;16.80;99.90;;;16.96;100.00;98056.09;4933811;28;20051;-74
2023/07/17 06:08:08;;;;;;;10.45;3.95;;;17.00;99.90;;;16.96;100.00;98050.84;4935171;28;20839;-77
2023/07/17 06:10:38;;;;;;;9.45;3.58;;;17.10;99.90;;;16.87;100.00;98046.16;4930389;28;20051;-76
2023/07/17 06:13:04;;;;;;;10.10;3.88;;;17.30;99.90;;;16.82;100.00;98040.34;4935980;29;20126;-77
2023/07/17 06:15:32;;;;;;;10.32;3.67;;;17.20;99.90;;;16.61;100.00;98042.47;4935825;28;20059;-74
2023/07/17 06:17:59;;;;;;;8.98;3.13;;;17.20;99.90;;;16.72;100.00;98038.25;4931463;28;20086;-76
2023/07/17 06:20:26;;;;;;;11.63;4.40;;;17.10;99.90;;;16.67;100.00;98034.22;4937192;28;20040;-77
2023/07/17 06:22:53;;;;;;;11.98;4.35;;;17.10;99.90;;;16.82;100.00;98035.13;4934642;28;20587;-74
2023/07/17 06:25:21;;;;;;;13.35;3.90;;;17.10;99.90;;;17.08;100.00;98039.63;4931142;29;20055;-76
2023/07/17 06:27:48;;;;;;;10.88;3.67;;;17.20;99.90;;;17.14;100.00;98028.72;4947072;28;20156;-76
2023/07/17 06:30:15;;;;;;;8.82;4.13;;;17.40;99.90;;;17.34;100.00;98030.09;4939230;28;20130;-76
2023/07/17 06:32:44;;;;;;;9.57;3.47;;;17.60;99.90;;;17.34;100.00;98037.97;4933207;29;20059;-76
2023/07/17 06:35:13;;;;;;;8.30;3.92;;;17.70;99.90;;;17.35;100.00;98025.69;4931763;29;20479;-77
2023/07/17 06:37:40;;;;;;;7.88;3.35;;;17.50;99.90;;;17.35;100.00;98031.78;4932708;28;20131;-75
2023/07/17 06:40:08;;;;;;;9.43;3.88;;;17.60;99.90;;;17.74;100.00;98035.47;4933976;29;20165;-76
2023/07/17 06:42:35;;;;;;;8.23;3.88;;;17.80;99.90;;;17.94;100.00;98023.66;4938383;29;20052;-75
2023/07/17 06:45:02;;;;;;;12.32;3.72;;;17.90;99.90;;;18.16;100.00;98017.03;4935174;29;20126;-77
2023/07/17 06:47:30;;;;;;;8.73;3.55;;;18.20;99.90;;;18.15;100.00;98015.31;4934418;28;20110;-77
2023/07/17 06:50:05;;;;;;;12.23;3.65;;;18.30;99.90;;;18.39;100.00;98002.34;4949528;28;20512;-75
2023/07/17 06:52:32;;;;;;;6.95;3.17;;;18.30;99.90;;;18.35;100.00;98011.38;4936566;29;20098;-75
2023/07/17 06:54:59;;;;;;;12.57;3.50;;;18.10;99.90;;;18.44;100.00;98012.53;4918430;29;20060;-76
2023/07/17 06:57:32;;;;;;;8.40;3.30;;;18.30;99.90;;;18.56;100.00;98003.81;4937693;29;20119;-76
2023/07/17 07:00:00;;;;;;;11.40;3.67;;;18.50;99.90;;;18.47;100.00;98012.31;4931681;28;20070;-75
2023/07/17 07:02:27;;;;;;;11.95;4.20;;;18.60;99.90;;;18.48;100.00;98014.84;4933369;29;20405;-77
2023/07/17 07:04:54;;;;;;;8.63;3.97;;;18.60;99.90;;;18.24;100.00;98006.81;4937726;28;20057;-76
2023/07/17 07:07:22;;;;;;;7.78;3.58;;;18.60;99.90;;;18.21;100.00;98011.47;4949816;28;20101;-76
2023/07/17 07:09:49;;;;;;;9.27;4.05;;;18.60;99.90;;;18.72;100.00;98012.31;4939384;29;20055;-76
2023/07/17 07:12:17;;;;;;;9.23;3.50;;;18.70;99.90;;;19.45;100.00;98021.28;4937427;29;20063;-77
2023/07/17 07:14:44;;;;;;;10.85;3.83;;;19.00;99.90;;;19.36;100.00;98016.69;4937261;29;20055;-76
2023/07/17 07:17:12;;;;;;;12.57;3.83;;;19.00;99.90;;;19.13;100.00;98013.06;4936767;29;20054;-77
2023/07/17 07:19:39;;;;;;;13.63;3.58;;;19.00;99.90;;;18.58;100.00;98013.25;4936304;29;20134;-76
2023/07/17 07:22:07;;;;;;;9.52;3.67;;;19.00;99.90;;;18.68;100.00;98017.91;4938347;29;20048;-77
2023/07/17 07:24:34;;;;;;;10.15;3.53;;;18.90;99.90;;;18.90;100.00;98012.03;4941563;29;20130;-76
2023/07/17 07:27:01;;;;;;;9.48;3.80;;;19.10;99.90;;;19.08;100.00;98015.19;4916330;29;20111;-76
2023/07/17 07:29:28;;;;;;;6.57;3.08;;;19.20;99.90;;;19.04;100.00;98019.78;4935909;29;20134;-76
2023/07/17 07:31:55;;;;;;;7.93;3.22;;;19.20;99.90;;;19.70;100.00;98017.75;4939812;29;20504;-77
2023/07/17 07:34:22;;;;;;;10.18;3.92;;;19.60;99.90;;;20.09;100.00;98017.56;4938212;28;20052;-76
2023/07/17 07:36:51;;;;;;;8.75;3.53;;;20.00;99.90;;;19.76;100.00;98029.66;4938589;29;20047;-75
2023/07/17 07:39:18;;;;;;;9.52;3.92;;;20.10;99.90;;;19.54;100.00;98017.16;4933414;29;20048;-77
2023/07/17 07:41:46;;;;;;;13.45;4.15;;;20.00;99.90;;;19.76;100.00;98021.75;4937163;29;20078;-77
2023/07/17 07:44:13;;;;;;;7.97;3.13;;;20.00;99.90;;;19.95;100.00;98023.88;4931098;29;20126;-77
2023/07/17 07:46:43;;;;;;;9.20;3.28;;;20.30;99.90;;;19.97;100.00;98017.53;4933446;29;20286;-77
2023/07/17 07:49:10;;;;;;;7.82;3.35;;;20.50;99.90;;;19.79;100.00;98017.09;4936669;29;20141;-77
2023/07/17 07:51:38;;;;;;;9.50;3.67;;;20.30;99.90;;;19.78;100.00;98027.75;4936779;29;20072;-77
2023/07/17 07:54:06;;;;;;;11.73;2.80;;;20.10;99.90;;;19.62;100.00;98031.47;4937052;29;20051;-76
2023/07/17 07:56:33;;;;;;;11.23;3.17;;;20.00;99.90;;;19.80;100.00;98017.94;4932493;29;20051;-77
2023/07/17 07:59:00;;;;;;;6.88;3.13;;;20.10;99.90;;;20.19;100.00;98021.22;4932318;29;20059;-76
2023/07/17 08:01:28;;;;;;;11.23;3.10;;;20.30;99.90;;;20.15;100.00;98025.88;4940572;28;20048;-76
2023/07/17 08:03:55;;;;;;;9.95;3.40;;;20.40;99.90;;;20.53;100.00;98026.59;4939601;28;20695;-76
2023/07/17 08:06:23;;;;;;;10.32;2.83;;;20.70;99.90;;;20.05;100.00;98035.44;4939024;29;20118;-77
2023/07/17 08:08:50;;;;;;;8.38;3.42;;;20.60;99.90;;;19.99;100.00;98026.16;4949838;28;20514;-77
2023/07/17 08:11:22;;;;;;;11.45;3.20;;;20.50;99.90;;;20.36;100.00;98031.31;4935723;29;20468;-76
2023/07/17 08:13:49;;;;;;;13.53;3.60;;;20.60;99.90;;;20.06;100.00;98023.91;4932119;29;20059;-77
2023/07/17 08:16:19;;;;;;;8.10;2.25;;;20.60;99.90;;;20.59;100.00;98024.31;4917518;29;20159;-76
2023/07/17 08:18:47;;;;;;;9.70;2.92;;;20.90;99.90;;;20.26;100.00;98030.34;4938204;29;20059;-77
2023/07/17 08:21:14;;;;;;;7.40;3.05;;;20.70;99.90;;;20.01;100.00;98029.53;4933221;29;20047;-77
2023/07/17 08:23:43;;;;;;;9.55;3.10;;;20.50;99.90;;;19.98;100.00;98027.13;4935474;29;20103;-76
2023/07/17 08:26:10;;;;;;;6.40;2.45;;;20.50;99.90;;;20.41;100.00;98030.97;4939640;28;20401;-77
2023/07/17 08:28:37;;;;;;;9.50;3.13;;;20.70;99.90;;;20.48;100.00;98032.19;4935619;29;20051;-76
2023/07/17 08:31:04;;;;;;;8.15;3.00;;;20.80;99.90;;;20.77;100.00;98027.34;4935302;29;20813;-76
2023/07/17 08:33:31;;;;;;;7.30;2.70;;;21.10;99.90;;;20.73;100.00;98025.91;4936490;29;20055;-77
2023/07/17 08:35:59;;;;;;;12.05;3.47;;;21.00;99.90;;;20.39;100.00;98036.38;4932142;29;20139;-76
2023/07/17 08:38:26;;;;;;;8.05;2.88;;;20.90;99.90;;;20.73;100.00;98023.28;4931507;29;20047;-77
2023/07/17 08:40:57;;;;;;;10.30;3.38;;;20.90;99.90;;;20.92;100.00;98033.25;4936141;29;20048;-77
2023/07/17 08:43:24;;;;;;;6.63;2.75;;;21.00;99.90;;;21.40;100.00;98025.09;4941053;29;20508;-75
2023/07/17 08:45:52;;;;;;;12.10;3.00;;;21.10;99.90;;;21.17;100.00;98036.63;4949103;28;20149;-76
2023/07/17 08:48:20;;;;;;;10.40;2.95;;;21.10;99.90;;;21.74;100.00;98035.59;4933918;29;20044;-76
2023/07/17 08:50:47;;;;;;;12.60;3.83;;;21.20;99.90;;;22.31;100.00;98030.97;4932210;29;20138;-77
2023/07/17 08:53:17;;;;;;;13.77;4.05;;;21.30;99.90;;;21.47;100.00;98033.38;4929465;29;20472;-76
2023/07/17 08:55:45;;;;;;;11.70;3.15;;;21.80;99.90;;;21.79;100.00;98035.22;4947741;28;20079;-76
2023/07/17 08:58:12;;;;;;;10.35;2.67;;;21.60;99.90;;;22.39;100.00;98041.75;4932723;29;20814;-77
2023/07/17 09:00:42;;;;;;;9.10;2.75;;;21.90;99.90;;;23.14;100.00;98035.38;4929405;29;20058;-74
2023/07/17 09:03:09;;;;;;;8.00;2.60;;;22.20;99.90;;;22.65;100.00;98033.41;4932002;29;20047;-77
2023/07/17 09:05:37;;;;;;;10.18;2.92;;;22.30;99.90;;;21.99;100.00;98038.91;4920178;29;20066;-77
2023/07/17 09:08:04;;;;;;;9.13;2.60;;;22.50;99.90;;;22.27;100.00;98051.53;4937197;29;20059;-77
2023/07/17 09:10:35;;;;;;;14.70;3.17;;;22.30;99.90;;;22.95;100.00;98037.91;4936547;29;20051;-76
2023/07/17 09:13:04;;;;;;;9.10;2.17;;;22.60;99.90;;;23.47;100.00;98025.44;4948695;28;20166;-77
2023/07/17 09:15:33;;;;;;;9.50;2.70;;;23.00;99.90;;;23.61;100.00;98018.09;4934375;29;20054;-77
2023/07/17 09:18:01;;;;;;;8.73;2.60;;;23.50;99.90;;;23.76;100.00;98012.25;4931676;29;20047;-76
2023/07/17 09:20:28;;;;;;;6.68;2.30;;;24.10;99.90;;;23.49;100.00;98010.25;4933162;29;20059;-77
2023/07/17 09:23:00;;;;;;;9.90;2.70;;;24.80;99.90;;;23.97;100.00;98013.97;4951442;28;20051;-77
2023/07/17 09:25:30;;;;;;;6.50;2.30;;;24.50;99.90;;;23.51;100.00;98012.75;4926341;29;20056;-76
2023/07/17 09:27:58;;;;;;;6.95;2.72;;;24.50;99.30;;;23.49;100.00;98020.00;4947832;28;20059;-77
2023/07/17 09:30:27;;;;;;;6.40;2.22;;;24.50;98.50;;;24.03;100.00;98004.63;4932520;29;20142;-77
2023/07/17 09:33:05;;;;;;;4.68;1.80;;;24.70;99.50;;;24.24;100.00;98015.91;4936648;29;20058;-77
2023/07/17 09:35:32;;;;;;;8.95;2.22;;;25.40;98.50;;;24.08;100.00;98013.81;4942121;28;20526;-77
2023/07/17 09:37:59;;;;;;;8.07;2.17;;;25.10;97.10;;;24.86;100.00;97996.94;4936962;29;20516;-77
2023/07/17 09:40:27;;;;;;;4.88;2.13;;;25.10;97.30;;;23.96;100.00;98004.34;4952162;28;20051;-77
2023/07/17 09:42:55;;;;;;;6.95;2.30;;;25.10;97.80;;;24.01;100.00;98005.59;4934747;28;20059;-77
2023/07/17 09:45:24;;;;;;;8.10;2.55;;;25.70;97.60;;;24.18;100.00;98014.66;4915592;29;20051;-78
2023/07/17 09:47:51;;;;;;;8.77;2.20;;;25.90;96.90;;;23.87;100.00;98005.19;4943659;28;20125;-76
2023/07/17 09:50:23;;;;;;;7.53;2.30;;;25.60;95.90;;;24.58;100.00;98013.66;4937909;29;20079;-77
2023/07/17 09:52:55;;;;;;;10.40;2.20;;;25.70;96.00;;;24.89;100.00;98008.13;4955552;28;20044;-77
2023/07/17 09:55:29;;;;;;;5.22;1.80;;;26.00;95.20;;;24.76;100.00;98021.72;4946264;29;20047;-79
2023/07/17 09:57:59;;;;;;;6.25;1.70;;;25.30;92.40;;;22.96;100.00;98024.53;4938012;29;20047;-78
2023/07/17 10:00:27;;;;;;;5.97;1.75;;;24.10;92.70;;;23.47;100.00;98020.16;4938618;29;20082;-77
2023/07/17 10:03:13;;;;;;;7.03;2.20;;;23.40;93.50;;;22.59;100.00;98026.00;4932218;29;20479;-77
2023/07/17 10:05:41;;;;;;;4.10;1.73;;;23.20;94.90;;;23.26;100.00;98022.03;4928043;29;20615;-77
2023/07/17 10:08:16;;;;;;;6.00;1.60;;;23.70;94.60;;;24.18;100.00;98016.50;4946618;28;20488;-78
2023/07/17 10:10:43;;;;;;;9.43;1.95;;;24.60;93.60;;;24.94;100.00;98005.88;4946318;28;20052;-75
2023/07/17 10:13:11;;;;;;;6.30;2.10;;;25.20;93.10;;;23.23;100.00;98020.50;4923159;29;20055;-75